Accueil
METAR-TAF:

METAR-TAF

Aéroports :

Aéroport de Paris-Orly

Paris-Orly, France

latitude: 48-44N, longitude: 002-24E, altitude: 89 m

Observation

Le bulletin a été fait il y a 34 minutes, à 07:30 UTC
Vent 2 kt de direction variable
Température 18°C
Humidité 59%
Pression 1010 hPa
Visibilité 10 km ou plus
pas de nuages en-dessous de 1500 mètres et pas de cumulonimbus.

METAR: LFPO 150730Z VRB02KT CAVOK 18/10 Q1010 NOSIG

Heure: 10:04 (08:04 UTC)

Prévision

Le bulletin a été fait il y a 3 heures et 4 minutes, à 05:00 UTC
Prévision valable du 15 à 06 UTC au 16 à 12 UTC
Vent 8 kt de sud
Visibilité 10 km ou plus
pas de nuages en-dessous de 1500 mètres et pas de cumulonimbus.
Temporairement
du 15 à 12 UTC au 15 à 15 UTC
Vent 12 kt de sud avec des rafales jusqu'à 22 kt
Evoluant progressivement
du 15 à 20 UTC au 15 à 22 UTC
Vent 5 kt de est/sud-est

TAF: LFPO 150500Z 1506/1612 17008KT CAVOK TEMPO 1512/1515 17012G22KT BECMG 1520/1522 12005KT

Observations et prévisions météorologiques de plus de 4000 aéroports (messages METAR et TAF).

Les stations disponibles sont représentées par des disques jaunes et rouges sur la carte.

Passer la souris dessus pour voir le nom de la station.

Cliquer dessus pour voir les observations et prévisions météorologiques.

Pour changer de carte: cliquez sur les boutons verts avec une croix noire pour zoomer, sur le bouton vert avec un tiret pour effectuer un zoom arrière, ou sur les flèches vertes pour les cartes adjacentes.


METAR-TAF: